Weather at Bugungu Airport

Public forecast

Using degrees Celsius for public forecast. Weather courtesy of forecast.io.

Closest aviation weather report (METAR) to Bugungu Airport

Report is more than 6 hours old.

Closest report is Masindi Airport, 28.8 nm (53.3 km) SSE. Retrieved 2020/09/21 12:00 UTC (1 month ago):

HUMI 211200Z 16006KT9999 FEW023 FEW025CB 27/18

Closest aviation forecast (TAF) to Bugungu Airport

Forecast is more than 12 hours old.

Closest forecast is Soroti Airport, 127.6 nm (236.3 km) ESE. Retrieved 2020/10/31 06:15 UTC (18 hours ago):

TAF TAF HUSO 310500Z 3106/0106 16004KT 9999 FEW018 BKN100 BECMG 3109/3113 BKN020 FEW022CB BECMG 3116/3120 25007KT -TSRA SCT019 FEW021CB FM 312300 35003KT FEW018 BKN100